Time;durP1;ratioP1;P1;durP2;ratioP2;P2;SDS_P1;SDS_P2;PMS_P1;PMS_P2;Temp;Humidity;BMP_temperature;BMP_pressure;BME280_temperature;BME280_humidity;BME280_pressure;Samples;Min_cycle;Max_cycle;Signal;HPM_P1;HPM_P2
2021/11/03 00:52:39;;;;;;;0.63;0.40;;;5.50;92.10;;;;;;5991398;23;20095;-88
2021/11/03 06:09:13;;;;;;;0.93;0.60;;;4.80;92.20;;;;;;6285453;22;20088;-84
2021/11/03 06:11:42;;;;;;;0.70;0.50;;;4.80;92.20;;;;;;6212802;23;20106;-86
2021/11/03 06:14:09;;;;;;;1.15;0.70;;;4.80;92.20;;;;;;6163540;23;20020;-85
2021/11/03 06:16:35;;;;;;;0.60;0.60;;;4.70;92.20;;;;;;6166048;23;20052;-86
2021/11/03 06:19:01;;;;;;;1.30;0.90;;;4.80;92.20;;;;;;6185818;23;20040;-86
2021/11/03 06:21:27;;;;;;;0.82;0.57;;;4.80;92.20;;;;;;6165416;23;20078;-86
2021/11/03 06:23:53;;;;;;;1.75;0.73;;;5.00;92.20;;;;;;6132105;23;20025;-86
2021/11/03 06:26:22;;;;;;;1.20;0.90;;;4.90;92.20;;;;;;6138410;23;20095;-86
2021/11/03 06:28:49;;;;;;;0.73;0.52;;;4.80;92.10;;;;;;6168198;23;20048;-86
2021/11/03 06:31:15;;;;;;;1.23;0.77;;;4.90;92.20;;;;;;6163125;23;20404;-86
2021/11/03 06:33:41;;;;;;;0.57;0.50;;;4.80;92.20;;;;;;6165073;23;20013;-85
2021/11/03 06:36:08;;;;;;;0.90;0.70;;;4.80;92.20;;;;;;6187836;23;20469;-86
2021/11/03 06:38:34;;;;;;;0.60;0.50;;;4.80;92.20;;;;;;6138158;23;20009;-78
2021/11/03 06:45:02;;;;;;;0.50;0.50;;;4.80;92.30;;;;;;6272030;22;20019;-88
2021/11/03 06:47:52;;;;;;;1.55;0.90;;;4.80;92.30;;;;;;6245813;22;20063;-88
2021/11/03 06:53:52;;;;;;;1.23;0.60;;;4.80;92.20;;;;;;6064430;23;20422;-86
2021/11/03 06:56:18;;;;;;;2.67;1.15;;;4.80;92.10;;;;;;6070115;23;20406;-86
2021/11/03 06:58:43;;;;;;;2.38;1.40;;;4.80;92.20;;;;;;6094041;23;20014;-85
2021/11/03 07:01:10;;;;;;;1.45;0.80;;;4.80;92.20;;;;;;6093718;23;20029;-84
2021/11/03 07:03:37;;;;;;;1.25;0.77;;;4.80;92.20;;;;;;6094120;23;20042;-87
2021/11/03 07:06:03;;;;;;;0.63;0.63;;;4.80;92.20;;;;;;6093561;23;20011;-85
2021/11/03 07:08:29;;;;;;;0.77;0.55;;;4.80;92.20;;;;;;6093362;23;20077;-85
2021/11/03 07:10:58;;;;;;;0.70;0.55;;;4.80;92.20;;;;;;6069620;23;20018;-85
2021/11/03 07:13:36;;;;;;;1.00;0.77;;;5.00;92.20;;;;;;6070727;23;20097;-86
2021/11/03 07:16:02;;;;;;;1.25;0.85;;;4.80;92.10;;;;;;6063679;23;20015;-84
2021/11/03 07:18:28;;;;;;;1.42;0.82;;;4.90;92.20;;;;;;6064834;23;20094;-85
2021/11/03 07:20:54;;;;;;;1.25;0.88;;;4.80;92.10;;;;;;6076911;23;20022;-84
2021/11/03 07:23:22;;;;;;;1.90;1.13;;;4.90;92.20;;;;;;6108175;23;20025;-84
2021/11/03 07:25:49;;;;;;;1.52;1.00;;;4.90;92.20;;;;;;6161686;23;20017;-85
2021/11/03 07:28:15;;;;;;;0.93;0.65;;;4.90;92.20;;;;;;6322052;22;20067;-84
2021/11/03 07:30:41;;;;;;;1.35;0.90;;;4.90;92.20;;;;;;6341721;22;20003;-84
2021/11/03 07:33:09;;;;;;;2.70;1.48;;;5.00;92.20;;;;;;6349669;22;20010;-84
2021/11/03 07:35:35;;;;;;;1.00;0.85;;;5.00;92.10;;;;;;6371044;22;20422;-84
2021/11/03 07:38:02;;;;;;;0.98;0.80;;;4.90;92.10;;;;;;6367803;22;20002;-84
2021/11/03 07:40:34;;;;;;;1.48;0.98;;;5.00;92.10;;;;;;6342027;22;20013;-85
2021/11/03 07:43:02;;;;;;;0.80;0.73;;;5.10;92.20;;;;;;6316366;22;20009;-80
2021/11/03 07:45:29;;;;;;;1.30;0.80;;;5.00;92.10;;;;;;6316189;22;20029;-80
2021/11/03 07:47:56;;;;;;;1.80;0.93;;;5.00;92.10;;;;;;6371229;22;20026;-81
2021/11/03 07:50:25;;;;;;;1.33;0.90;;;5.00;92.10;;;;;;6369497;22;20006;-81
2021/11/03 07:52:51;;;;;;;1.98;1.25;;;5.10;92.10;;;;;;6338708;22;20025;-80
2021/11/03 07:55:17;;;;;;;1.45;0.95;;;5.20;92.10;;;;;;6367984;22;20091;-81
2021/11/03 07:57:43;;;;;;;1.00;0.70;;;5.10;92.10;;;;;;6368355;22;20303;-80
2021/11/03 08:00:23;;;;;;;1.48;0.80;;;5.20;92.10;;;;;;6342293;22;20123;-81
2021/11/03 08:02:50;;;;;;;1.23;0.73;;;5.30;92.10;;;;;;6367808;22;20006;-81
2021/11/03 08:05:15;;;;;;;1.10;0.70;;;5.30;92.00;;;;;;6367628;22;20018;-80
2021/11/03 08:07:41;;;;;;;0.88;0.65;;;5.40;92.00;;;;;;6370313;22;20464;-80
2021/11/03 08:10:13;;;;;;;2.33;1.20;;;5.40;92.00;;;;;;6341403;22;20010;-80
2021/11/03 08:12:39;;;;;;;;;;;5.50;92.00;;;;;;6343019;22;20009;-80
2021/11/03 08:15:05;;;;;;;1.08;0.80;;;5.50;91.90;;;;;;6369211;22;19955;-80
2021/11/03 08:17:32;;;;;;;2.55;1.25;;;5.50;91.90;;;;;;6369466;22;20081;-80
2021/11/03 08:20:00;;;;;;;1.17;0.80;;;5.60;91.90;;;;;;6367836;22;20010;-80
2021/11/03 08:22:26;;;;;;;1.20;0.93;;;5.60;91.90;;;;;;6367299;22;20375;-80
2021/11/03 08:24:54;;;;;;;1.40;0.80;;;5.60;91.80;;;;;;6367350;22;20010;-80
2021/11/03 08:27:22;;;;;;;1.77;1.10;;;5.70;91.80;;;;;;6315608;22;20006;-80
2021/11/03 08:29:49;;;;;;;1.42;0.90;;;5.80;91.80;;;;;;6341620;22;20067;-80
2021/11/03 08:32:19;;;;;;;2.33;1.10;;;5.80;91.80;;;;;;6368470;22;20007;-80
2021/11/03 08:34:45;;;;;;;1.57;1.03;;;5.80;91.80;;;;;;6369999;22;20006;-80
2021/11/03 08:37:15;;;;;;;2.05;1.27;;;5.80;91.70;;;;;;6341441;22;20089;-80
2021/11/03 08:39:45;;;;;;;1.88;1.10;;;6.00;91.70;;;;;;6368600;22;20015;-79
2021/11/03 08:42:11;;;;;;;1.60;1.10;;;6.00;91.70;;;;;;6367561;22;20006;-80
2021/11/03 08:44:40;;;;;;;3.95;2.00;;;6.00;91.70;;;;;;6315189;22;20014;-80
2021/11/03 08:47:08;;;;;;;3.15;1.80;;;6.00;91.70;;;;;;6367370;22;20442;-80
2021/11/03 08:49:34;;;;;;;1.80;1.15;;;6.00;91.80;;;;;;6368796;22;20006;-80
2021/11/03 08:52:01;;;;;;;2.05;1.27;;;6.10;91.80;;;;;;6367315;22;20010;-80
2021/11/03 08:54:26;;;;;;;2.35;1.10;;;6.10;91.80;;;;;;6367319;22;20006;-80
2021/11/03 08:56:52;;;;;;;1.55;0.95;;;6.10;91.80;;;;;;6367210;22;20006;-80
2021/11/03 08:59:18;;;;;;;1.30;1.00;;;6.10;91.80;;;;;;6369203;22;20380;-80
2021/11/03 09:01:45;;;;;;;4.25;1.60;;;6.20;91.80;;;;;;6368354;22;20159;-80
2021/11/03 09:04:11;;;;;;;2.20;1.40;;;6.20;91.80;;;;;;6341185;22;20059;-80
2021/11/03 09:06:38;;;;;;;3.30;1.58;;;6.20;91.80;;;;;;6370679;22;20472;-80
2021/11/03 09:09:06;;;;;;;3.58;1.90;;;6.20;91.80;;;;;;6367078;22;20006;-80
2021/11/03 09:11:32;;;;;;;3.13;1.50;;;6.20;91.80;;;;;;6369579;22;20037;-80
2021/11/03 09:13:59;;;;;;;3.83;1.92;;;6.30;91.80;;;;;;6368605;22;20003;-80
2021/11/03 09:16:25;;;;;;;2.38;1.33;;;6.30;91.80;;;;;;6368757;22;20006;-80
2021/11/03 09:18:51;;;;;;;2.63;1.35;;;6.30;91.80;;;;;;6371685;22;20018;-80
2021/11/03 09:21:17;;;;;;;1.88;1.10;;;6.40;91.80;;;;;;6367225;22;20017;-80
2021/11/03 09:23:45;;;;;;;2.30;1.17;;;6.40;91.80;;;;;;6368618;22;20056;-80
2021/11/03 09:26:12;;;;;;;3.45;1.50;;;6.40;91.80;;;;;;6368948;22;20045;-80
2021/11/03 09:28:39;;;;;;;2.10;1.20;;;6.50;91.80;;;;;;6369211;22;20089;-80
2021/11/03 09:31:07;;;;;;;1.90;1.08;;;6.60;91.70;;;;;;6366799;22;20014;-80
2021/11/03 09:33:35;;;;;;;1.90;1.27;;;6.70;91.70;;;;;;6341280;22;20006;-80
2021/11/03 09:36:04;;;;;;;2.03;1.10;;;6.60;91.70;;;;;;6369814;22;20009;-80
2021/11/03 09:38:32;;;;;;;3.03;1.60;;;6.70;91.70;;;;;;6368497;22;20085;-80
2021/11/03 09:41:18;;;;;;;4.05;1.50;;;6.80;91.70;;;;;;6370148;22;20007;-80
2021/11/03 09:43:53;;;;;;;3.17;1.70;;;6.90;91.70;;;;;;6369968;22;20037;-80
2021/11/03 09:46:35;;;;;;;2.97;1.65;;;6.90;91.60;;;;;;6369645;22;20002;-80
2021/11/03 09:49:21;;;;;;;3.55;1.80;;;6.90;91.60;;;;;;6343627;22;20089;-79
2021/11/03 09:51:53;;;;;;;2.78;1.27;;;6.90;91.60;;;;;;6370276;22;20033;-82
2021/11/03 09:54:24;;;;;;;2.65;1.50;;;6.90;91.60;;;;;;6344121;22;20013;-86
2021/11/03 09:57:17;;;;;;;2.83;1.60;;;6.90;91.60;;;;;;6319688;22;20348;-86
2021/11/03 09:59:55;;;;;;;2.08;1.00;;;6.90;91.60;;;;;;6345828;22;20437;-86
2021/11/03 10:02:47;;;;;;;2.50;1.60;;;7.00;91.70;;;;;;6344105;22;20006;-85
2021/11/03 10:05:24;;;;;;;3.45;1.60;;;7.20;91.70;;;;;;6346477;22;20018;-85
2021/11/03 10:08:05;;;;;;;1.40;1.20;;;7.20;91.70;;;;;;6317196;22;20017;-86
2021/11/03 10:10:37;;;;;;;2.00;1.40;;;7.10;91.60;;;;;;6318754;22;20010;-85
2021/11/03 10:13:44;;;;;;;1.85;1.33;;;7.10;91.60;;;;;;6343406;22;20017;-85
2021/11/03 10:16:33;;;;;;;3.08;1.58;;;7.20;91.60;;;;;;6290337;22;20034;-85
2021/11/03 10:19:28;;;;;;;4.63;2.30;;;7.40;91.60;;;;;;6291049;22;20015;-85
2021/11/03 10:22:00;;;;;;;2.75;1.67;;;7.40;91.60;;;;;;6286327;22;20071;-85
2021/11/03 10:24:33;;;;;;;2.40;1.50;;;7.50;91.50;;;;;;6285195;22;20010;-85
2021/11/03 10:27:17;;;;;;;2.60;1.70;;;7.50;91.50;;;;;;6281705;22;20018;-85
2021/11/03 10:29:49;;;;;;;3.38;1.83;;;7.60;91.40;;;;;;6309891;22;20045;-85
2021/11/03 10:32:36;;;;;;;3.17;1.80;;;7.60;91.40;;;;;;6284355;22;20015;-85
2021/11/03 10:35:19;;;;;;;3.67;2.03;;;7.70;91.50;;;;;;6286247;22;20003;-85
2021/11/03 10:37:47;;;;;;;5.03;2.63;;;7.80;91.40;;;;;;6286727;22;20014;-85
2021/11/03 10:40:30;;;;;;;2.65;1.80;;;7.90;91.40;;;;;;6310371;22;20060;-85
2021/11/03 10:43:01;;;;;;;2.35;1.55;;;7.80;91.30;;;;;;6290590;22;20014;-86
2021/11/03 10:45:34;;;;;;;2.33;1.30;;;8.00;91.30;;;;;;6284684;22;20015;-87
2021/11/03 10:48:23;;;;;;;3.67;1.80;;;8.10;91.30;;;;;;6285723;22;20011;-84
2021/11/03 10:51:12;;;;;;;2.55;1.70;;;8.20;91.30;;;;;;6283773;22;20037;-84
2021/11/03 10:54:02;;;;;;;2.22;1.45;;;8.20;91.60;;;;;;6283559;22;20098;-85
2021/11/03 10:56:31;;;;;;;2.33;1.38;;;8.30;91.30;;;;;;6283529;22;20063;-85
2021/11/03 10:59:22;;;;;;;2.67;1.45;;;8.30;91.30;;;;;;6283911;22;20011;-84
2021/11/03 11:01:49;;;;;;;4.72;1.58;;;8.60;91.30;;;;;;6288269;22;20056;-84
2021/11/03 11:04:33;;;;;;;2.42;1.50;;;8.50;91.20;;;;;;6248684;22;20027;-85
2021/11/03 11:07:13;;;;;;;2.97;1.50;;;8.60;91.20;;;;;;6218016;23;20020;-86
2021/11/03 11:09:44;;;;;;;2.58;1.42;;;8.90;91.20;;;;;;6187894;23;20020;-84
2021/11/03 11:12:23;;;;;;;3.42;1.75;;;8.70;91.10;;;;;;6212875;23;20104;-84
2021/11/03 11:14:53;;;;;;;3.67;1.75;;;9.00;91.20;;;;;;6181349;23;20530;-84
2021/11/03 11:17:30;;;;;;;2.67;1.50;;;8.90;91.10;;;;;;6217253;23;20015;-84
2021/11/03 11:20:27;;;;;;;3.50;1.70;;;8.90;91.00;;;;;;6220699;23;20428;-84
2021/11/03 11:23:02;;;;;;;2.08;1.38;;;8.90;91.10;;;;;;6200931;23;20114;-84
2021/11/03 11:25:57;;;;;;;2.92;1.40;;;9.00;91.10;;;;;;6217588;23;20050;-84
2021/11/03 11:28:48;;;;;;;3.15;1.50;;;9.20;91.10;;;;;;6246734;23;20023;-84
2021/11/03 11:31:35;;;;;;;2.83;1.60;;;9.20;91.10;;;;;;6196097;23;20484;-84
2021/11/03 11:34:28;;;;;;;3.30;1.70;;;9.00;91.10;;;;;;6220545;23;20022;-84
2021/11/03 11:37:07;;;;;;;3.03;1.67;;;9.10;91.10;;;;;;6228054;23;20015;-84
2021/11/03 11:39:47;;;;;;;3.60;1.70;;;9.30;91.10;;;;;;6237727;22;20033;-84
2021/11/03 11:42:29;;;;;;;3.17;1.70;;;9.30;91.10;;;;;;6260855;22;20146;-84
2021/11/03 11:45:06;;;;;;;3.22;1.70;;;9.30;91.10;;;;;;6264234;22;20011;-85
2021/11/03 11:47:43;;;;;;;2.63;1.50;;;9.30;91.10;;;;;;6267010;22;20366;-85
2021/11/03 11:50:25;;;;;;;3.97;2.03;;;9.40;91.10;;;;;;6258275;22;20096;-84
2021/11/03 11:52:55;;;;;;;3.03;1.90;;;9.40;91.10;;;;;;6204176;22;20023;-84
2021/11/03 11:55:26;;;;;;;3.88;1.85;;;9.40;91.10;;;;;;6230029;22;20024;-84
2021/11/03 11:58:22;;;;;;;3.45;1.80;;;9.50;91.10;;;;;;6257327;22;20016;-85
2021/11/03 12:01:20;;;;;;;3.55;1.88;;;9.40;91.10;;;;;;6196642;23;20020;-85
2021/11/03 12:04:37;;;;;;;3.53;1.73;;;9.40;91.10;;;;;;6175758;23;20013;-84
2021/11/03 12:07:25;;;;;;;2.63;1.52;;;9.50;91.10;;;;;;6138737;23;20028;-84
2021/11/03 12:10:15;;;;;;;2.40;1.63;;;9.60;91.10;;;;;;6146275;23;20068;-84
2021/11/03 12:13:22;;;;;;;4.35;2.10;;;9.50;91.10;;;;;;6166599;23;20017;-84
2021/11/03 12:16:11;;;;;;;3.50;1.73;;;9.60;91.00;;;;;;6167325;23;20025;-84
2021/11/03 12:18:49;;;;;;;4.65;2.08;;;9.60;91.10;;;;;;6131096;23;20053;-84
2021/11/03 12:21:34;;;;;;;4.97;2.38;;;9.50;91.10;;;;;;6042131;23;20015;-84
2021/11/03 12:24:30;;;;;;;2.67;1.60;;;9.60;91.10;;;;;;6019523;23;20019;-84
2021/11/03 12:27:47;;;;;;;3.33;1.90;;;9.60;91.10;;;;;;6049709;23;20053;-84
2021/11/03 12:30:40;;;;;;;3.83;2.10;;;9.70;91.10;;;;;;6032922;23;20031;-84
2021/11/03 12:33:09;;;;;;;2.75;1.70;;;9.70;91.10;;;;;;5937978;24;20020;-80
2021/11/03 12:35:57;;;;;;;3.28;1.80;;;9.70;91.00;;;;;;5957724;23;20016;-80
2021/11/03 12:38:46;;;;;;;3.47;1.92;;;9.80;91.00;;;;;;6035530;23;20011;-80
2021/11/03 12:41:26;;;;;;;3.40;1.70;;;9.80;91.00;;;;;;6039439;23;20019;-81
2021/11/03 12:43:59;;;;;;;3.30;1.83;;;9.90;91.00;;;;;;6039705;23;20023;-80
2021/11/03 12:46:26;;;;;;;3.55;2.00;;;9.90;91.00;;;;;;6036455;23;20030;-80
2021/11/03 12:48:56;;;;;;;3.33;1.90;;;9.90;91.00;;;;;;6035952;23;20019;-80
2021/11/03 12:51:37;;;;;;;3.28;1.85;;;10.00;91.00;;;;;;6054059;23;20324;-81
2021/11/03 12:54:23;;;;;;;3.53;2.10;;;9.90;91.00;;;;;;6094126;23;20029;-81
2021/11/03 12:57:06;;;;;;;3.25;1.70;;;9.90;91.00;;;;;;6112684;23;20049;-81
2021/11/03 12:59:37;;;;;;;2.53;1.63;;;9.90;91.00;;;;;;6145779;23;20014;-80
2021/11/03 13:02:18;;;;;;;2.83;1.70;;;9.90;91.00;;;;;;6234285;22;20407;-81
2021/11/03 13:04:47;;;;;;;3.72;2.05;;;9.90;91.10;;;;;;6314909;22;20018;-81
2021/11/03 13:07:27;;;;;;;4.10;2.08;;;10.00;91.10;;;;;;6307511;22;20010;-81
2021/11/03 13:10:13;;;;;;;3.58;1.70;;;10.00;91.10;;;;;;6341168;22;20006;-82
2021/11/03 13:12:48;;;;;;;2.55;1.70;;;10.00;91.00;;;;;;6316663;22;20017;-82
2021/11/03 13:15:23;;;;;;;3.00;1.70;;;10.10;91.00;;;;;;6341127;22;20010;-83
2021/11/03 13:17:53;;;;;;;3.33;1.70;;;10.10;91.10;;;;;;6320204;22;20021;-83
2021/11/03 13:20:26;;;;;;;2.15;1.30;;;10.20;91.00;;;;;;6315817;22;20002;-82
2021/11/03 13:22:53;;;;;;;3.75;1.92;;;10.10;91.00;;;;;;6290227;22;20011;-82
2021/11/03 13:25:23;;;;;;;3.47;1.80;;;10.20;91.00;;;;;;6340224;22;20026;-82
2021/11/03 13:27:50;;;;;;;4.45;2.10;;;10.20;91.10;;;;;;6341374;22;20014;-82
2021/11/03 13:30:35;;;;;;;3.05;1.83;;;10.10;91.10;;;;;;6314916;22;20002;-83
2021/11/03 13:33:16;;;;;;;3.28;1.77;;;10.10;91.10;;;;;;6366164;22;20062;-81
2021/11/03 13:35:55;;;;;;;;;;;10.10;91.10;;;;;;6309982;22;20316;-82
2021/11/03 13:38:24;;;;;;;2.17;1.33;;;10.10;91.10;;;;;;6310349;22;19972;-82
2021/11/03 13:40:54;;;;;;;2.45;1.60;;;10.10;91.10;;;;;;6345918;22;20007;-82
2021/11/03 13:43:20;;;;;;;3.78;1.95;;;10.00;91.20;;;;;;6312116;22;20045;-82
2021/11/03 13:46:15;;;;;;;2.90;1.70;;;10.00;91.20;;;;;;6285939;22;20007;-82
2021/11/03 13:48:53;;;;;;;3.20;1.73;;;9.90;91.20;;;;;;6347045;22;20031;-81
2021/11/03 13:51:26;;;;;;;3.88;2.00;;;9.90;91.20;;;;;;6345337;22;20010;-82
2021/11/03 13:53:56;;;;;;;3.80;1.98;;;9.90;91.30;;;;;;6310032;22;20336;-82
2021/11/03 13:56:23;;;;;;;2.83;1.95;;;9.80;91.40;;;;;;6311459;22;20005;-81
2021/11/03 13:59:09;;;;;;;3.85;2.30;;;9.80;91.40;;;;;;6346713;22;20011;-81
2021/11/03 14:01:35;;;;;;;4.50;2.25;;;9.80;91.50;;;;;;6287454;22;20434;-82
2021/11/03 14:04:12;;;;;;;3.65;2.10;;;9.70;91.40;;;;;;6309393;22;20011;-85
2021/11/03 14:07:00;;;;;;;2.83;1.70;;;9.80;91.40;;;;;;6312112;22;20003;-82
2021/11/03 14:09:27;;;;;;;4.57;2.25;;;9.60;91.40;;;;;;6289917;22;20011;-83
2021/11/03 14:11:55;;;;;;;3.47;1.70;;;9.70;91.50;;;;;;6310286;22;20478;-82
2021/11/03 14:14:24;;;;;;;3.25;1.80;;;9.60;91.50;;;;;;6309228;22;20007;-82
2021/11/03 14:16:55;;;;;;;4.78;2.10;;;9.70;91.50;;;;;;6346806;22;20418;-83
2021/11/03 14:19:28;;;;;;;4.18;2.30;;;9.60;91.50;;;;;;6346882;22;20003;-83
2021/11/03 14:21:57;;;;;;;4.70;2.42;;;9.60;91.50;;;;;;6311425;22;20033;-83
2021/11/03 14:24:24;;;;;;;4.03;2.35;;;9.60;91.50;;;;;;6311045;22;20010;-82
2021/11/03 14:26:50;;;;;;;5.50;2.75;;;9.60;91.50;;;;;;6319997;22;20093;-83
2021/11/03 14:29:16;;;;;;;5.05;2.53;;;9.40;91.40;;;;;;6285522;22;20057;-83
2021/11/03 14:31:45;;;;;;;5.22;2.75;;;9.50;91.50;;;;;;6288777;22;20041;-83
2021/11/03 14:34:16;;;;;;;3.15;1.77;;;9.50;91.50;;;;;;6309675;22;20013;-83
2021/11/03 14:36:43;;;;;;;4.57;2.20;;;9.40;91.50;;;;;;6311330;22;20369;-83
2021/11/03 14:39:19;;;;;;;3.20;1.60;;;9.40;91.50;;;;;;6351652;22;19987;-83
2021/11/03 14:41:45;;;;;;;5.60;2.67;;;9.40;91.60;;;;;;6293917;22;20377;-83
2021/11/03 14:44:11;;;;;;;5.30;2.65;;;9.40;91.60;;;;;;6290078;22;20010;-83
2021/11/03 14:46:42;;;;;;;4.68;2.58;;;9.30;91.60;;;;;;6310576;22;20084;-83
2021/11/03 14:49:28;;;;;;;4.25;2.10;;;9.30;91.60;;;;;;6344881;22;20056;-82
2021/11/03 14:51:56;;;;;;;3.00;1.67;;;9.30;91.60;;;;;;6286715;22;20060;-84
2021/11/03 14:54:23;;;;;;;2.85;1.60;;;9.20;91.60;;;;;;6316121;22;20492;-82
2021/11/03 14:56:49;;;;;;;3.33;1.88;;;9.20;91.60;;;;;;6314801;22;20084;-84
2021/11/03 14:59:15;;;;;;;3.92;1.77;;;9.10;91.60;;;;;;6253873;22;20019;-85
2021/11/03 15:01:46;;;;;;;4.50;2.00;;;9.10;91.70;;;;;;6251107;22;20429;-80
2021/11/03 15:04:27;;;;;;;3.50;1.90;;;9.10;91.70;;;;;;6306181;22;20039;-80
2021/11/03 15:06:55;;;;;;;3.38;1.80;;;9.10;91.70;;;;;;6236990;22;20039;-81
2021/11/03 15:09:30;;;;;;;3.70;1.80;;;9.10;92.00;;;;;;6269803;22;20067;-80
2021/11/03 15:11:58;;;;;;;3.30;1.77;;;9.10;91.70;;;;;;6304836;22;20069;-80
2021/11/03 15:14:25;;;;;;;3.53;1.88;;;9.10;91.70;;;;;;6281315;22;20011;-80
2021/11/03 15:16:53;;;;;;;2.30;1.40;;;9.10;91.60;;;;;;6255786;22;20007;-80
2021/11/03 15:19:27;;;;;;;2.78;1.52;;;9.10;91.70;;;;;;6304451;22;20011;-81
2021/11/03 15:21:55;;;;;;;3.08;1.90;;;9.00;91.70;;;;;;6304405;22;20441;-81
2021/11/03 15:24:22;;;;;;;3.28;1.60;;;9.00;91.70;;;;;;6304299;22;20019;-81
2021/11/03 15:26:48;;;;;;;3.70;1.88;;;9.00;91.70;;;;;;6251521;22;20417;-81
2021/11/03 15:29:17;;;;;;;3.17;1.50;;;8.90;92.10;;;;;;6280190;22;20015;-81
2021/11/03 15:31:46;;;;;;;2.92;1.52;;;8.90;91.80;;;;;;6371078;22;19998;-82
2021/11/03 15:34:18;;;;;;;3.42;1.70;;;8.90;91.80;;;;;;6369351;22;20010;-81
2021/11/03 15:36:45;;;;;;;3.28;1.70;;;8.80;91.70;;;;;;6369906;22;20410;-81
2021/11/03 15:39:20;;;;;;;3.25;1.70;;;8.80;91.80;;;;;;6367842;22;20002;-80
2021/11/03 15:41:47;;;;;;;2.65;1.50;;;8.70;91.80;;;;;;6342208;22;20011;-81
2021/11/03 15:44:13;;;;;;;3.13;1.88;;;8.80;91.80;;;;;;6368358;22;20006;-81
2021/11/03 15:46:41;;;;;;;2.25;1.30;;;8.80;91.80;;;;;;6367803;22;20013;-80
2021/11/03 15:49:17;;;;;;;2.20;1.33;;;8.70;91.80;;;;;;6342100;22;20010;-81
2021/11/03 15:51:43;;;;;;;2.70;1.40;;;8.70;91.80;;;;;;6366481;22;20013;-80
2021/11/03 15:54:12;;;;;;;2.60;1.25;;;8.80;91.90;;;;;;6370029;22;20334;-82
2021/11/03 15:56:39;;;;;;;2.15;1.40;;;8.70;91.80;;;;;;6318558;22;20010;-80
2021/11/03 15:59:06;;;;;;;1.98;1.17;;;8.70;91.80;;;;;;6369572;22;20016;-81
2021/11/03 16:01:32;;;;;;;2.40;1.20;;;8.70;91.80;;;;;;6372517;22;19999;-83
2021/11/03 16:04:01;;;;;;;2.20;1.10;;;8.70;91.90;;;;;;6342227;22;20010;-82
2021/11/03 16:06:31;;;;;;;1.45;1.00;;;8.80;91.90;;;;;;6371711;22;20007;-81
2021/11/03 16:08:59;;;;;;;3.28;1.63;;;8.60;91.90;;;;;;6369753;22;20006;-81
2021/11/03 16:11:25;;;;;;;2.75;1.55;;;8.50;91.90;;;;;;6369798;22;20064;-81
2021/11/03 16:13:51;;;;;;;2.42;1.52;;;8.50;91.90;;;;;;6367541;22;20010;-81
2021/11/03 16:16:17;;;;;;;2.75;1.52;;;8.50;91.90;;;;;;6367739;22;20013;-81
2021/11/03 16:18:43;;;;;;;2.63;1.63;;;8.50;92.00;;;;;;6369610;22;20006;-81
2021/11/03 16:21:30;;;;;;;3.08;1.30;;;8.50;91.90;;;;;;6367762;22;19999;-82
2021/11/03 16:23:57;;;;;;;2.22;1.35;;;8.40;91.90;;;;;;6368288;22;20009;-82
2021/11/03 16:26:24;;;;;;;3.10;1.40;;;8.40;92.00;;;;;;6368540;22;20014;-81
2021/11/03 16:28:51;;;;;;;2.20;1.40;;;8.40;92.00;;;;;;6341224;22;20006;-82
2021/11/03 16:31:17;;;;;;;2.58;1.45;;;8.40;92.00;;;;;;6316001;22;20033;-82
2021/11/03 16:33:43;;;;;;;2.22;1.38;;;8.40;92.00;;;;;;6341422;22;20430;-82
2021/11/03 16:36:15;;;;;;;2.83;1.55;;;8.30;91.90;;;;;;6371782;22;20014;-81
2021/11/03 16:38:42;;;;;;;2.55;1.40;;;8.30;91.90;;;;;;6370332;22;20030;-81
2021/11/03 16:41:39;;;;;;;3.28;1.60;;;8.30;92.00;;;;;;6369339;22;20438;-81
2021/11/03 16:44:21;;;;;;;2.85;1.70;;;8.30;92.00;;;;;;6345681;22;20498;-81
2021/11/03 16:46:50;;;;;;;3.03;1.70;;;8.30;92.00;;;;;;6367765;22;20063;-81
2021/11/03 16:49:17;;;;;;;2.75;1.45;;;8.30;92.00;;;;;;6343568;22;20040;-85
2021/11/03 16:51:44;;;;;;;2.60;1.35;;;8.30;92.00;;;;;;6368468;22;20426;-82
2021/11/03 16:54:11;;;;;;;4.18;2.00;;;8.30;92.00;;;;;;6342205;22;20009;-82
2021/11/03 16:56:37;;;;;;;2.88;1.60;;;8.30;92.00;;;;;;6368962;22;20437;-82
2021/11/03 16:59:03;;;;;;;3.40;1.60;;;8.30;91.90;;;;;;6341032;22;20483;-82
2021/11/03 17:01:29;;;;;;;3.13;1.58;;;8.30;91.90;;;;;;6367727;22;20481;-79
2021/11/03 17:04:01;;;;;;;3.72;1.88;;;8.30;91.90;;;;;;6367213;22;20041;-79
2021/11/03 17:06:34;;;;;;;3.53;1.48;;;8.40;91.90;;;;;;6342068;22;20064;-79
2021/11/03 17:09:20;;;;;;;2.92;1.65;;;8.40;91.90;;;;;;6367524;22;20029;-79
2021/11/03 17:11:48;;;;;;;2.35;1.27;;;8.40;91.90;;;;;;6368955;22;20334;-79
2021/11/03 17:14:24;;;;;;;3.20;1.48;;;8.40;91.90;;;;;;6369065;22;20019;-80
2021/11/03 17:16:51;;;;;;;2.92;1.45;;;8.40;91.90;;;;;;6368965;22;20322;-84
2021/11/03 17:19:19;;;;;;;2.92;1.42;;;8.40;91.90;;;;;;6277318;22;20019;-84
2021/11/03 17:21:47;;;;;;;4.55;2.15;;;8.40;91.90;;;;;;6251960;22;20474;-85
2021/11/03 17:24:16;;;;;;;3.53;1.92;;;8.40;91.90;;;;;;6278250;22;20459;-86
2021/11/03 17:27:12;;;;;;;2.88;1.58;;;8.40;91.90;;;;;;6227316;22;20018;-86
2021/11/03 17:29:41;;;;;;;3.33;1.40;;;8.40;91.80;;;;;;6304330;22;20015;-86
2021/11/03 17:32:16;;;;;;;2.72;1.42;;;8.40;91.80;;;;;;6241649;23;20019;-86
2021/11/03 17:34:42;;;;;;;2.95;1.63;;;8.40;91.80;;;;;;6217024;23;20022;-86
2021/11/03 17:37:18;;;;;;;3.92;1.95;;;8.30;91.80;;;;;;6188509;23;20096;-86
2021/11/03 17:39:43;;;;;;;4.05;1.92;;;8.30;91.80;;;;;;6137551;23;20071;-86
2021/11/03 17:42:21;;;;;;;3.65;1.80;;;8.30;91.80;;;;;;6161550;23;20021;-85
2021/11/03 17:44:53;;;;;;;2.80;1.48;;;8.30;91.90;;;;;;6188332;23;20033;-86
2021/11/03 17:47:25;;;;;;;3.05;1.60;;;8.40;91.90;;;;;;6187223;23;20103;-86
2021/11/03 17:50:38;;;;;;;4.00;1.80;;;8.30;91.90;;;;;;6155250;23;20019;-82
2021/11/03 17:53:06;;;;;;;3.25;1.52;;;8.30;91.90;;;;;;6211735;23;20023;-85
2021/11/03 17:55:32;;;;;;;3.00;1.38;;;8.30;91.80;;;;;;6212224;23;20464;-83
2021/11/03 17:58:01;;;;;;;3.22;1.60;;;8.30;91.80;;;;;;6187407;23;20099;-83
2021/11/03 18:00:32;;;;;;;3.28;1.80;;;8.20;91.80;;;;;;6163218;23;20016;-83
2021/11/03 18:02:58;;;;;;;3.75;1.70;;;8.30;91.90;;;;;;6202124;23;20054;-83
2021/11/03 18:05:29;;;;;;;3.05;1.70;;;8.30;91.90;;;;;;6245779;23;20012;-83
2021/11/03 18:07:55;;;;;;;2.58;1.38;;;8.30;91.90;;;;;;6254586;22;20011;-83
2021/11/03 18:10:23;;;;;;;5.93;2.55;;;8.30;91.90;;;;;;6273279;22;20038;-84
2021/11/03 18:13:01;;;;;;;3.67;1.73;;;8.20;91.90;;;;;;6222448;22;20019;-84
2021/11/03 18:15:28;;;;;;;4.15;2.20;;;8.20;91.90;;;;;;6249742;22;20456;-83
2021/11/03 18:17:56;;;;;;;3.67;1.92;;;8.20;91.90;;;;;;6187511;22;20389;-83
2021/11/03 18:20:33;;;;;;;3.40;1.60;;;8.20;91.90;;;;;;6235382;22;20035;-83
2021/11/03 18:23:00;;;;;;;3.63;1.80;;;8.20;91.90;;;;;;6286782;22;20041;-84
2021/11/03 18:25:27;;;;;;;5.55;2.47;;;8.20;91.90;;;;;;6367996;22;20006;-83
2021/11/03 18:27:55;;;;;;;2.95;1.70;;;8.30;92.00;;;;;;6370324;22;20002;-83
2021/11/03 18:30:30;;;;;;;4.05;1.90;;;8.10;91.90;;;;;;6368067;22;20006;-83
2021/11/03 18:32:59;;;;;;;6.13;2.30;;;8.10;92.00;;;;;;6317387;22;20434;-84
2021/11/03 18:35:25;;;;;;;4.25;2.00;;;8.10;92.00;;;;;;6367987;22;20037;-84
2021/11/03 18:37:52;;;;;;;5.10;2.10;;;8.10;92.00;;;;;;6315805;22;20438;-84
2021/11/03 18:40:21;;;;;;;3.65;2.03;;;8.10;92.00;;;;;;6368550;22;20059;-84
2021/11/03 18:42:49;;;;;;;4.47;1.98;;;8.10;92.00;;;;;;6369098;22;20021;-84
2021/11/03 18:45:23;;;;;;;3.70;1.85;;;8.10;92.00;;;;;;6368661;22;20010;-83
2021/11/03 18:47:49;;;;;;;3.55;1.83;;;8.10;92.00;;;;;;6371133;22;20010;-84
2021/11/03 18:50:20;;;;;;;4.10;1.85;;;8.10;92.00;;;;;;6368162;22;20010;-83
2021/11/03 18:52:47;;;;;;;5.97;2.83;;;8.00;92.00;;;;;;6342779;22;20011;-83
2021/11/03 18:55:28;;;;;;;5.75;2.65;;;8.00;92.00;;;;;;6372143;22;20006;-83
2021/11/03 18:57:55;;;;;;;3.55;2.10;;;7.90;91.90;;;;;;6316168;22;20002;-83
2021/11/03 19:00:40;;;;;;;4.85;2.13;;;7.90;92.00;;;;;;6370128;22;20030;-83
2021/11/03 19:03:06;;;;;;;4.68;2.33;;;7.90;92.00;;;;;;6368547;22;20033;-83
2021/11/03 19:05:33;;;;;;;4.93;2.15;;;7.90;92.00;;;;;;6344546;22;20122;-84
2021/11/03 19:08:02;;;;;;;2.95;1.70;;;8.00;92.10;;;;;;6315571;22;20101;-83
2021/11/03 19:10:28;;;;;;;2.88;1.60;;;7.90;92.00;;;;;;6368614;22;20033;-84
2021/11/03 19:12:59;;;;;;;3.38;1.67;;;7.80;92.00;;;;;;6341769;22;20006;-83
2021/11/03 19:15:30;;;;;;;2.83;1.42;;;7.80;92.10;;;;;;6371091;22;20016;-83
2021/11/03 19:17:55;;;;;;;6.72;2.72;;;7.80;92.10;;;;;;6316088;22;20002;-83
2021/11/03 19:20:23;;;;;;;3.25;1.70;;;7.80;92.10;;;;;;6341316;22;20006;-83
2021/11/03 19:22:55;;;;;;;3.10;1.70;;;7.80;92.10;;;;;;6370777;22;20014;-83
2021/11/03 19:25:26;;;;;;;4.00;1.88;;;7.80;92.10;;;;;;6371425;22;20406;-84
2021/11/03 19:27:56;;;;;;;6.80;2.30;;;7.80;92.10;;;;;;6368684;22;20006;-84
2021/11/03 19:30:29;;;;;;;4.85;1.80;;;7.80;92.10;;;;;;6368085;22;20010;-84
2021/11/03 19:33:23;;;;;;;4.82;2.05;;;7.80;92.10;;;;;;6370826;22;20018;-86
2021/11/03 19:35:56;;;;;;;4.88;1.92;;;7.80;92.10;;;;;;6249090;23;20050;-86
2021/11/03 19:38:35;;;;;;;4.95;1.80;;;7.80;92.10;;;;;;6214004;23;20127;-86
2021/11/03 19:41:15;;;;;;;4.80;2.03;;;7.70;92.10;;;;;;6230287;23;20017;-86